createdAt,value
2023-04-20T00:00:11.859Z,10.30
2023-04-20T00:01:16.665Z,10.30
2023-04-20T00:02:18.872Z,10.30
2023-04-20T00:03:21.814Z,10.30
2023-04-20T00:04:24.134Z,10.30
2023-04-20T00:05:26.550Z,10.30
2023-04-20T00:06:33.062Z,10.30
2023-04-20T00:07:35.816Z,10.30
2023-04-20T00:08:37.838Z,10.30
2023-04-20T00:09:39.861Z,10.30
2023-04-20T00:10:41.960Z,10.20
2023-04-20T00:11:43.960Z,10.30
2023-04-20T00:12:45.974Z,10.30
2023-04-20T00:13:48.105Z,10.20
2023-04-20T00:14:50.370Z,10.20
2023-04-20T00:15:52.420Z,10.20
2023-04-20T00:16:54.499Z,10.10
2023-04-20T00:17:56.735Z,10.10
2023-04-20T00:19:02.204Z,10.10
2023-04-20T00:20:05.308Z,10.10
2023-04-20T00:21:07.815Z,10.10
2023-04-20T00:22:09.903Z,10.00
2023-04-20T00:23:11.945Z,10.00
2023-04-20T00:24:14.011Z,10.00
2023-04-20T00:25:16.111Z,9.90
2023-04-20T00:26:19.020Z,10.00
2023-04-20T00:27:24.863Z,9.90
2023-04-20T00:28:27.032Z,9.90
2023-04-20T00:29:29.229Z,9.90
2023-04-20T00:30:32.663Z,9.90
2023-04-20T00:31:34.707Z,9.90
2023-04-20T00:32:36.735Z,9.90
2023-04-20T00:33:38.801Z,9.90
2023-04-20T00:34:42.306Z,9.90
2023-04-20T00:35:44.312Z,9.80
2023-04-20T00:36:46.599Z,9.80
2023-04-20T00:37:48.635Z,9.80
2023-04-20T00:38:50.685Z,9.80
2023-04-20T00:39:52.898Z,9.80
2023-04-20T00:40:58.295Z,9.80
2023-04-20T00:42:07.718Z,9.80
2023-04-20T00:43:13.941Z,9.80
2023-04-20T00:44:16.176Z,9.80
2023-04-20T00:45:18.398Z,9.70
2023-04-20T00:46:21.358Z,9.80
2023-04-20T00:47:23.585Z,9.70
2023-04-20T00:48:25.790Z,9.70
2023-04-20T00:49:31.920Z,9.70
2023-04-20T00:50:34.788Z,9.70
2023-04-20T00:51:36.966Z,9.70
2023-04-20T00:52:41.139Z,9.70
2023-04-20T00:53:43.210Z,9.60
2023-04-20T00:54:45.701Z,9.60
2023-04-20T00:55:47.984Z,9.60
2023-04-20T00:56:50.852Z,9.60
2023-04-20T00:57:53.342Z,9.60
2023-04-20T00:58:55.935Z,9.60
2023-04-20T00:59:58.074Z,9.60
2023-04-20T01:01:00.073Z,9.50
2023-04-20T01:02:13.250Z,9.50
2023-04-20T01:03:17.003Z,9.50
2023-04-20T01:04:22.998Z,9.60
2023-04-20T01:05:27.048Z,9.60
2023-04-20T01:06:30.715Z,9.60
2023-04-20T01:07:32.890Z,9.50
2023-04-20T01:08:34.912Z,9.50
2023-04-20T01:09:39.645Z,9.60
2023-04-20T01:10:42.064Z,9.60
2023-04-20T01:11:44.082Z,9.60
2023-04-20T01:12:46.086Z,9.60
2023-04-20T01:13:49.240Z,9.60
2023-04-20T01:14:51.295Z,9.70
2023-04-20T01:15:53.926Z,9.70
2023-04-20T01:16:55.961Z,9.70
2023-04-20T01:17:58.062Z,9.80
2023-04-20T01:19:00.197Z,9.80
2023-04-20T01:20:02.326Z,9.80
2023-04-20T01:21:04.368Z,9.80
2023-04-20T01:22:08.055Z,9.80
2023-04-20T01:23:10.111Z,9.80
2023-04-20T01:24:12.068Z,9.90
2023-04-20T01:25:14.804Z,9.90
2023-04-20T01:26:18.926Z,9.90
2023-04-20T01:27:20.938Z,9.90
2023-04-20T01:28:23.079Z,9.90
2023-04-20T01:29:26.641Z,9.90
2023-04-20T01:30:29.478Z,9.90
2023-04-20T01:31:31.969Z,9.90
2023-04-20T01:32:34.573Z,9.80
2023-04-20T01:33:36.803Z,9.80
2023-04-20T01:34:39.197Z,9.60
2023-04-20T01:35:43.130Z,9.50
2023-04-20T01:36:45.749Z,9.40
2023-04-20T01:37:47.826Z,9.40
2023-04-20T01:38:50.047Z,9.30
2023-04-20T01:39:52.327Z,9.30
2023-04-20T01:40:56.392Z,9.30
2023-04-20T01:41:58.352Z,9.30
2023-04-20T01:43:00.277Z,9.30
2023-04-20T01:44:02.445Z,9.40
2023-04-20T01:45:07.241Z,9.40
2023-04-20T01:46:10.528Z,9.40
2023-04-20T01:47:12.543Z,9.40
2023-04-20T01:48:15.900Z,9.40
2023-04-20T01:49:18.012Z,9.40
2023-04-20T01:50:20.169Z,9.40
2023-04-20T01:51:22.359Z,9.40
2023-04-20T01:52:24.353Z,9.50
2023-04-20T01:53:27.102Z,9.50
2023-04-20T01:54:29.094Z,9.50
2023-04-20T01:55:31.046Z,9.50
2023-04-20T01:56:32.968Z,9.50
2023-04-20T01:57:35.116Z,9.50
2023-04-20T01:58:37.139Z,9.50
2023-04-20T01:59:39.225Z,9.50
2023-04-20T02:00:41.410Z,9.50
2023-04-20T02:01:43.434Z,9.50
2023-04-20T02:02:45.512Z,9.50
2023-04-20T02:03:49.640Z,9.50
2023-04-20T02:04:53.403Z,9.50
2023-04-20T02:05:55.777Z,9.50
2023-04-20T02:06:57.892Z,9.60
2023-04-20T02:07:59.845Z,9.60
2023-04-20T02:09:01.923Z,9.50
2023-04-20T02:10:04.948Z,9.50
2023-04-20T02:11:06.919Z,9.40
2023-04-20T02:12:10.829Z,9.40
2023-04-20T02:13:15.057Z,9.30
2023-04-20T02:14:17.129Z,9.30
2023-04-20T02:15:19.156Z,9.30
2023-04-20T02:16:23.009Z,9.30
2023-04-20T02:17:25.153Z,9.30
2023-04-20T02:18:27.176Z,9.20
2023-04-20T02:19:29.222Z,9.20
2023-04-20T02:20:31.493Z,9.20
2023-04-20T02:21:33.425Z,9.10
2023-04-20T02:22:36.230Z,9.10
2023-04-20T02:23:38.292Z,9.10
2023-04-20T02:24:41.454Z,9.00
2023-04-20T02:25:43.418Z,9.00
2023-04-20T02:26:47.280Z,9.00
2023-04-20T02:27:49.665Z,9.00
2023-04-20T02:28:51.812Z,9.00
2023-04-20T02:29:53.994Z,9.00
2023-04-20T02:30:56.104Z,9.00
2023-04-20T02:31:58.203Z,9.00
2023-04-20T02:33:00.441Z,9.00
2023-04-20T02:34:02.818Z,9.00
2023-04-20T02:35:05.452Z,9.00
2023-04-20T02:36:07.911Z,9.00
2023-04-20T02:37:09.870Z,9.00
2023-04-20T02:38:11.931Z,9.10
2023-04-20T02:39:14.670Z,9.10
2023-04-20T02:40:16.830Z,9.10
2023-04-20T02:41:19.098Z,9.10
2023-04-20T02:42:21.224Z,9.10
2023-04-20T02:43:24.191Z,9.10
2023-04-20T02:44:26.258Z,9.10
2023-04-20T02:45:28.276Z,9.10
2023-04-20T02:46:30.415Z,9.10
2023-04-20T02:47:32.573Z,9.10
2023-04-20T02:48:34.832Z,9.20
2023-04-20T02:49:37.131Z,9.20
2023-04-20T02:50:39.232Z,9.20
2023-04-20T02:51:52.242Z,9.30
2023-04-20T02:52:54.233Z,9.40
2023-04-20T02:53:56.366Z,9.40
2023-04-20T02:55:03.739Z,9.40
2023-04-20T02:56:06.142Z,9.40
2023-04-20T02:57:16.786Z,9.50
2023-04-20T02:58:18.868Z,9.50
2023-04-20T02:59:47.472Z,9.50
2023-04-20T03:01:46.358Z,9.60
2023-04-20T03:02:55.562Z,9.60
2023-04-20T03:03:58.272Z,9.60
2023-04-20T03:05:00.435Z,9.50
2023-04-20T03:06:05.306Z,9.60
2023-04-20T03:07:07.983Z,9.50
2023-04-20T03:08:11.988Z,9.50
2023-04-20T03:09:14.830Z,9.50
2023-04-20T03:10:28.084Z,9.50
2023-04-20T03:11:46.177Z,9.50
2023-04-20T03:12:56.651Z,9.50
2023-04-20T03:14:15.046Z,9.50
2023-04-20T03:15:18.515Z,9.50
2023-04-20T03:16:41.928Z,9.50
2023-04-20T03:17:54.875Z,9.40
2023-04-20T03:19:11.484Z,9.30
2023-04-20T03:20:26.926Z,9.20
2023-04-20T03:21:33.139Z,9.20
2023-04-20T03:22:35.266Z,9.10
2023-04-20T03:23:37.851Z,9.00
2023-04-20T03:24:40.832Z,9.00
2023-04-20T03:25:58.460Z,9.00
2023-04-20T03:27:18.945Z,9.00
2023-04-20T03:28:38.961Z,9.00
2023-04-20T03:29:41.347Z,9.00
2023-04-20T03:30:43.831Z,9.00
2023-04-20T03:31:50.416Z,9.00
2023-04-20T03:32:52.691Z,9.00
2023-04-20T03:33:57.976Z,9.00
2023-04-20T03:35:00.142Z,8.90
2023-04-20T03:36:02.294Z,8.90
2023-04-20T03:37:04.312Z,8.90
2023-04-20T03:38:06.939Z,8.90
2023-04-20T03:39:09.806Z,9.00
2023-04-20T03:40:12.839Z,9.00
2023-04-20T03:41:15.232Z,9.00
2023-04-20T03:42:17.315Z,9.00
2023-04-20T03:43:19.342Z,9.10
2023-04-20T03:44:21.376Z,9.10
2023-04-20T03:45:23.499Z,9.10
2023-04-20T03:46:25.773Z,9.10
2023-04-20T03:47:28.265Z,9.20
2023-04-20T03:48:30.821Z,9.20
2023-04-20T03:49:32.900Z,9.30
2023-04-20T03:50:34.964Z,9.30
2023-04-20T03:51:36.985Z,9.30
2023-04-20T03:52:39.173Z,9.30
2023-04-20T03:53:41.204Z,9.30
2023-04-20T03:54:45.640Z,9.40
2023-04-20T03:55:51.124Z,9.40
2023-04-20T03:56:59.001Z,9.40
2023-04-20T03:58:03.480Z,9.40
2023-04-20T03:59:13.657Z,9.50
2023-04-20T04:00:18.624Z,9.50
2023-04-20T04:01:20.587Z,9.50
2023-04-20T04:02:24.987Z,9.60
2023-04-20T04:03:28.245Z,9.60
2023-04-20T04:04:30.748Z,9.60
2023-04-20T04:05:33.726Z,9.60
2023-04-20T04:06:36.367Z,9.70
2023-04-20T04:07:38.392Z,9.70
2023-04-20T04:08:40.712Z,9.70
2023-04-20T04:09:43.149Z,9.70
2023-04-20T04:10:46.544Z,9.70
2023-04-20T04:11:48.533Z,9.70
2023-04-20T04:12:50.619Z,9.70
2023-04-20T04:13:53.009Z,9.60
2023-04-20T04:14:55.722Z,9.50
2023-04-20T04:16:00.161Z,9.50
2023-04-20T04:17:03.033Z,9.40
2023-04-20T04:18:06.974Z,9.40
2023-04-20T04:19:11.841Z,9.30
2023-04-20T04:20:14.869Z,9.30
2023-04-20T04:21:17.707Z,9.30
2023-04-20T04:22:26.805Z,9.30
2023-04-20T04:23:49.208Z,9.20
2023-04-20T04:25:10.637Z,9.20
2023-04-20T04:26:13.074Z,9.10
2023-04-20T04:27:18.918Z,9.10
2023-04-20T04:28:28.692Z,9.00
2023-04-20T04:29:39.439Z,9.00
2023-04-20T04:30:44.806Z,9.00
2023-04-20T04:31:47.071Z,9.00
2023-04-20T04:32:52.412Z,9.00
2023-04-20T04:33:54.654Z,9.00
2023-04-20T04:35:08.581Z,9.00
2023-04-20T04:36:10.700Z,9.00
2023-04-20T04:37:13.132Z,9.10
2023-04-20T04:38:19.893Z,9.10
2023-04-20T04:39:24.269Z,9.10
2023-04-20T04:40:34.755Z,9.10
2023-04-20T04:41:38.437Z,9.20
2023-04-20T04:43:00.810Z,9.20
2023-04-20T04:44:03.674Z,9.20
2023-04-20T04:45:07.440Z,9.30
2023-04-20T04:46:13.362Z,9.30
2023-04-20T04:47:17.778Z,9.40
2023-04-20T04:48:20.535Z,9.40
2023-04-20T04:49:25.001Z,9.40
2023-04-20T04:50:27.162Z,9.40
2023-04-20T04:51:29.247Z,9.40
2023-04-20T04:52:31.477Z,9.40
2023-04-20T04:53:33.515Z,9.50
2023-04-20T04:54:35.557Z,9.50
2023-04-20T04:55:37.555Z,9.60
2023-04-20T04:56:39.586Z,9.60
2023-04-20T04:57:41.635Z,9.70
2023-04-20T04:58:43.714Z,9.70
2023-04-20T04:59:45.797Z,9.80
2023-04-20T05:00:48.294Z,9.80
2023-04-20T05:01:50.416Z,9.80
2023-04-20T05:02:55.511Z,9.90
2023-04-20T05:03:57.714Z,9.80
2023-04-20T05:05:00.382Z,9.80
2023-04-20T05:06:02.409Z,9.70
2023-04-20T05:07:04.454Z,9.60
2023-04-20T05:08:06.515Z,9.60
2023-04-20T05:09:08.516Z,9.70
2023-04-20T05:10:10.846Z,9.70
2023-04-20T05:11:12.853Z,9.60
2023-04-20T05:12:14.843Z,9.70
2023-04-20T05:13:16.858Z,9.70
2023-04-20T05:14:18.894Z,9.70
2023-04-20T05:15:20.913Z,9.70
2023-04-20T05:16:22.949Z,9.80
2023-04-20T05:17:25.018Z,9.80
2023-04-20T05:18:27.009Z,9.90
2023-04-20T05:19:28.969Z,9.90
2023-04-20T05:20:31.000Z,10.00
2023-04-20T05:21:33.200Z,10.00
2023-04-20T05:22:35.202Z,10.10
2023-04-20T05:23:37.280Z,10.20
2023-04-20T05:24:39.565Z,10.20
2023-04-20T05:25:41.661Z,10.20
2023-04-20T05:26:44.062Z,10.20
2023-04-20T05:27:46.356Z,10.20
2023-04-20T05:28:48.379Z,10.30
2023-04-20T05:29:50.788Z,10.40
2023-04-20T05:30:55.182Z,10.40
2023-04-20T05:31:57.157Z,10.50
2023-04-20T05:32:59.232Z,10.50
2023-04-20T05:34:02.495Z,10.60
2023-04-20T05:35:04.819Z,10.60
2023-04-20T05:36:10.162Z,10.70
2023-04-20T05:37:12.499Z,10.70
2023-04-20T05:38:14.432Z,10.70
2023-04-20T05:39:17.044Z,10.70
2023-04-20T05:40:19.444Z,10.80
2023-04-20T05:41:26.778Z,10.90
2023-04-20T05:42:28.886Z,10.90
2023-04-20T05:43:32.193Z,11.00
2023-04-20T05:44:36.415Z,11.00
2023-04-20T05:45:38.331Z,11.10
2023-04-20T05:46:40.395Z,11.10
2023-04-20T05:47:42.535Z,11.10
2023-04-20T05:48:44.578Z,11.10
2023-04-20T05:49:46.611Z,11.10
2023-04-20T05:50:48.654Z,11.20
2023-04-20T05:51:51.452Z,11.10
2023-04-20T05:52:54.155Z,11.20
2023-04-20T05:53:56.322Z,11.20
2023-04-20T05:54:59.574Z,11.20
2023-04-20T05:56:01.560Z,11.20
2023-04-20T05:57:05.396Z,11.20
2023-04-20T05:58:07.422Z,11.30
2023-04-20T05:59:10.035Z,11.30
2023-04-20T06:00:14.423Z,11.30
2023-04-20T06:01:16.393Z,11.20
2023-04-20T06:02:18.490Z,11.20
2023-04-20T06:03:21.184Z,11.20
2023-04-20T06:04:23.946Z,11.30
2023-04-20T06:05:26.270Z,11.30
2023-04-20T06:06:28.365Z,11.30
2023-04-20T06:07:30.535Z,11.30
2023-04-20T06:08:32.597Z,11.40
2023-04-20T06:09:34.627Z,11.40
2023-04-20T06:10:36.667Z,11.40
2023-04-20T06:11:38.644Z,11.30
2023-04-20T06:12:40.725Z,11.40
2023-04-20T06:13:42.743Z,11.40
2023-04-20T06:14:44.789Z,11.40
2023-04-20T06:15:47.426Z,11.40
2023-04-20T06:16:49.479Z,11.40
2023-04-20T06:17:51.493Z,11.50
2023-04-20T06:19:24.844Z,11.60
2023-04-20T06:20:26.882Z,11.60
2023-04-20T06:21:28.938Z,11.70
2023-04-20T06:22:31.029Z,11.70
2023-04-20T06:23:33.203Z,11.70
2023-04-20T06:24:35.852Z,11.80
2023-04-20T06:25:38.132Z,11.90
2023-04-20T06:26:40.068Z,11.90
2023-04-20T06:27:42.391Z,12.00
2023-04-20T06:28:45.502Z,12.00
2023-04-20T06:29:47.479Z,12.10
2023-04-20T06:30:49.616Z,12.20
2023-04-20T06:31:51.751Z,12.20
2023-04-20T06:32:53.878Z,12.30
2023-04-20T06:33:56.502Z,12.30
2023-04-20T06:34:58.584Z,12.40
2023-04-20T06:36:00.846Z,12.40
2023-04-20T06:37:02.817Z,12.50
2023-04-20T06:38:04.814Z,12.60
2023-04-20T06:39:06.884Z,12.60
2023-04-20T06:40:09.483Z,12.60
2023-04-20T06:41:11.528Z,12.70
2023-04-20T06:42:14.182Z,12.70
2023-04-20T06:43:16.213Z,12.80
2023-04-20T06:44:18.430Z,12.90
2023-04-20T06:45:20.606Z,12.90
2023-04-20T06:46:22.678Z,13.00
2023-04-20T06:47:31.436Z,13.10
2023-04-20T06:48:34.597Z,13.20
2023-04-20T06:49:37.672Z,13.30
2023-04-20T06:50:39.804Z,13.30
2023-04-20T06:51:41.885Z,13.30
2023-04-20T06:52:43.937Z,13.40
2023-04-20T06:53:45.991Z,13.40
2023-04-20T06:54:47.920Z,13.50
2023-04-20T06:55:50.017Z,13.60
2023-04-20T06:56:52.039Z,13.70
2023-04-20T06:57:53.960Z,13.80
2023-04-20T06:58:56.101Z,13.80
2023-04-20T07:00:01.254Z,13.90
2023-04-20T07:01:03.384Z,13.90
2023-04-20T07:02:05.393Z,14.00
2023-04-20T07:03:07.558Z,14.10
2023-04-20T07:04:10.008Z,14.20
2023-04-20T07:05:12.587Z,14.20
2023-04-20T07:06:15.689Z,14.20
2023-04-20T07:07:17.784Z,14.40
2023-04-20T07:08:20.365Z,14.50
2023-04-20T07:09:23.178Z,14.50
2023-04-20T07:10:25.279Z,14.50
2023-04-20T07:11:27.346Z,14.50
2023-04-20T07:12:29.545Z,14.40
2023-04-20T07:13:33.847Z,14.40
2023-04-20T07:14:36.186Z,14.30
2023-04-20T07:15:38.214Z,14.30
2023-04-20T07:16:40.409Z,14.30
2023-04-20T07:17:42.519Z,14.30
2023-04-20T07:18:44.610Z,14.30
2023-04-20T07:19:46.672Z,14.40
2023-04-20T07:20:48.778Z,14.40
2023-04-20T07:21:50.916Z,14.40
2023-04-20T07:22:52.982Z,14.70
2023-04-20T07:23:56.568Z,14.80
2023-04-20T07:24:58.690Z,14.80
2023-04-20T07:26:00.815Z,14.90
2023-04-20T07:27:03.172Z,14.90
2023-04-20T07:28:05.235Z,14.90
2023-04-20T07:29:07.163Z,14.90
2023-04-20T07:30:10.747Z,14.80
2023-04-20T07:31:12.894Z,14.70
2023-04-20T07:32:15.162Z,14.70
2023-04-20T07:33:17.311Z,14.60
2023-04-20T07:34:19.523Z,14.50
2023-04-20T07:35:21.983Z,14.40
2023-04-20T07:36:24.142Z,14.30
2023-04-20T07:37:27.389Z,14.40
2023-04-20T07:38:29.394Z,14.50
2023-04-20T07:39:31.688Z,14.60
2023-04-20T07:40:33.751Z,15.00
2023-04-20T07:41:36.869Z,15.40
2023-04-20T07:42:39.075Z,15.80
2023-04-20T07:43:41.137Z,16.00
2023-04-20T07:44:43.165Z,15.90
2023-04-20T07:45:45.272Z,15.90
2023-04-20T07:46:47.390Z,16.00
2023-04-20T07:47:51.544Z,16.30
2023-04-20T07:48:53.630Z,16.50
2023-04-20T07:49:55.862Z,16.60
2023-04-20T07:50:57.956Z,16.70
2023-04-20T07:52:12.831Z,16.90
2023-04-20T07:53:17.671Z,17.20
2023-04-20T07:54:19.679Z,17.40
2023-04-20T07:55:21.852Z,17.60
2023-04-20T07:56:23.804Z,17.80
2023-04-20T07:57:26.819Z,17.80
2023-04-20T07:58:28.822Z,18.00
2023-04-20T07:59:30.992Z,18.00
2023-04-20T08:00:33.057Z,18.10
2023-04-20T08:01:36.038Z,18.30
2023-04-20T08:02:38.161Z,18.50
2023-04-20T08:03:41.773Z,18.70
2023-04-20T08:04:44.830Z,18.80
2023-04-20T08:05:47.141Z,18.90
2023-04-20T08:06:49.317Z,19.00
2023-04-20T08:07:51.464Z,19.10
2023-04-20T08:08:53.613Z,19.30
2023-04-20T08:09:56.956Z,19.40
2023-04-20T08:10:59.124Z,19.30
2023-04-20T08:12:01.615Z,19.30
2023-04-20T08:13:03.712Z,19.50
2023-04-20T08:14:05.909Z,19.60
2023-04-20T08:15:08.750Z,19.70
2023-04-20T08:16:10.922Z,19.80
2023-04-20T08:17:12.943Z,19.80
2023-04-20T08:18:14.984Z,19.90
2023-04-20T08:19:17.080Z,20.00
2023-04-20T08:20:19.254Z,20.00
2023-04-20T08:21:25.404Z,20.00
2023-04-20T08:22:30.152Z,20.00
2023-04-20T08:23:32.526Z,20.10
2023-04-20T08:24:34.648Z,20.30
2023-04-20T08:25:40.516Z,20.50
2023-04-20T08:26:43.416Z,20.50
2023-04-20T08:27:45.518Z,20.70
2023-04-20T08:28:47.534Z,20.90
2023-04-20T08:29:49.593Z,21.10
2023-04-20T08:30:53.257Z,21.20
2023-04-20T08:31:55.817Z,21.30
2023-04-20T08:32:59.162Z,21.30
2023-04-20T08:34:01.683Z,21.40
2023-04-20T08:35:05.354Z,21.50
2023-04-20T08:36:07.531Z,21.60
2023-04-20T08:37:09.660Z,21.70
2023-04-20T08:38:15.611Z,21.70
2023-04-20T08:39:21.812Z,21.80
2023-04-20T08:40:25.138Z,22.00
2023-04-20T08:41:27.164Z,22.10
2023-04-20T08:42:29.170Z,22.10
2023-04-20T08:43:32.409Z,22.00
2023-04-20T08:44:34.471Z,22.00
2023-04-20T08:45:37.148Z,22.00
2023-04-20T08:46:45.389Z,22.20
2023-04-20T08:47:49.326Z,22.30
2023-04-20T08:48:55.090Z,22.40
2023-04-20T08:49:59.020Z,22.40
2023-04-20T08:51:02.011Z,22.60
2023-04-20T08:52:04.007Z,22.70
2023-04-20T08:53:06.026Z,22.60
2023-04-20T08:54:08.027Z,22.50
2023-04-20T08:55:10.586Z,22.50
2023-04-20T08:56:20.209Z,22.70
2023-04-20T08:57:22.240Z,22.70
2023-04-20T08:58:29.289Z,22.70
2023-04-20T08:59:31.594Z,22.70
2023-04-20T09:00:33.557Z,22.80
2023-04-20T09:01:36.428Z,22.90
2023-04-20T09:02:52.283Z,23.10
2023-04-20T09:03:54.525Z,23.20
2023-04-20T09:05:05.132Z,23.20
2023-04-20T09:06:18.368Z,23.10
2023-04-20T09:07:21.574Z,23.10
2023-04-20T09:08:35.528Z,23.20
2023-04-20T09:09:38.811Z,23.10
2023-04-20T09:10:43.520Z,23.10
2023-04-20T09:11:46.596Z,23.20
2023-04-20T09:12:49.081Z,23.20
2023-04-20T09:14:06.703Z,23.50
2023-04-20T09:15:10.539Z,23.70
2023-04-20T09:16:13.803Z,23.90
2023-04-20T09:17:18.038Z,23.90
2023-04-20T09:18:20.162Z,24.00
2023-04-20T09:19:26.829Z,23.90
2023-04-20T09:20:33.714Z,23.90
2023-04-20T09:21:35.972Z,23.90
2023-04-20T09:22:38.464Z,23.90
2023-04-20T09:23:41.072Z,23.80
2023-04-20T09:24:43.176Z,23.90
2023-04-20T09:25:50.925Z,24.00
2023-04-20T09:26:52.937Z,24.20
2023-04-20T09:27:57.108Z,23.80
2023-04-20T09:28:59.260Z,23.70
2023-04-20T09:30:04.130Z,23.70
2023-04-20T09:31:06.217Z,23.70
2023-04-20T09:32:08.608Z,23.70
2023-04-20T09:33:12.556Z,23.80
2023-04-20T09:34:15.358Z,23.70
2023-04-20T09:35:24.254Z,23.90
2023-04-20T09:36:37.831Z,23.90
2023-04-20T09:37:48.294Z,23.90
2023-04-20T09:39:06.876Z,23.80
2023-04-20T09:40:09.749Z,23.90
2023-04-20T09:41:11.940Z,24.10
2023-04-20T09:42:16.040Z,24.30
2023-04-20T09:43:24.825Z,24.40
2023-04-20T09:44:26.860Z,24.60
2023-04-20T09:45:29.780Z,24.40
2023-04-20T09:46:33.800Z,24.40
2023-04-20T09:47:37.214Z,24.50
2023-04-20T09:48:39.617Z,24.60
2023-04-20T09:49:44.164Z,24.50
2023-04-20T09:50:49.635Z,24.60
2023-04-20T09:51:52.713Z,24.60
2023-04-20T09:52:55.231Z,24.70
2023-04-20T09:53:59.146Z,24.60
2023-04-20T09:55:01.254Z,24.60
2023-04-20T09:56:06.083Z,24.70
2023-04-20T09:57:09.665Z,24.70
2023-04-20T09:58:12.268Z,24.60
2023-04-20T09:59:14.525Z,24.60
2023-04-20T10:00:17.099Z,24.60
2023-04-20T10:01:19.742Z,24.70
2023-04-20T10:02:21.962Z,24.60
2023-04-20T10:03:24.202Z,24.60
2023-04-20T10:04:26.725Z,24.70
2023-04-20T10:05:36.759Z,24.80
2023-04-20T10:06:39.152Z,24.60
2023-04-20T10:07:41.856Z,24.70
2023-04-20T10:08:44.012Z,25.00
2023-04-20T10:09:46.013Z,25.10
2023-04-20T10:10:50.352Z,25.10
2023-04-20T10:11:55.098Z,25.30
2023-04-20T10:13:03.195Z,25.20
2023-04-20T10:14:25.088Z,25.30
2023-04-20T10:15:53.291Z,25.30
2023-04-20T10:17:02.497Z,25.30
2023-04-20T10:18:23.976Z,25.40
2023-04-20T10:19:43.244Z,25.40
2023-04-20T10:20:45.987Z,25.40
2023-04-20T10:21:50.041Z,25.30
2023-04-20T10:22:53.261Z,25.60
2023-04-20T10:23:56.282Z,25.60
2023-04-20T10:24:58.848Z,25.60
2023-04-20T10:26:01.889Z,25.60
2023-04-20T10:27:04.851Z,25.30
2023-04-20T10:28:10.487Z,25.30
2023-04-20T10:29:27.382Z,25.30
2023-04-20T10:30:30.339Z,25.40
2023-04-20T10:31:40.535Z,25.50
2023-04-20T10:32:42.751Z,25.60
2023-04-20T10:33:56.091Z,25.40
2023-04-20T10:36:01.799Z,25.40
2023-04-20T10:37:14.314Z,25.40
2023-04-20T10:38:36.926Z,25.50
2023-04-20T10:39:47.208Z,25.80
2023-04-20T10:40:49.430Z,26.00
2023-04-20T10:42:04.037Z,26.00
2023-04-20T10:43:19.541Z,26.20
2023-04-20T10:44:22.041Z,26.10
2023-04-20T10:45:35.692Z,26.20
2023-04-20T10:46:37.896Z,26.10
2023-04-20T10:47:45.237Z,26.10
2023-04-20T10:48:54.577Z,25.90
2023-04-20T10:50:07.748Z,25.90
2023-04-20T10:51:10.615Z,25.50
2023-04-20T10:52:12.525Z,25.30
2023-04-20T10:53:23.149Z,25.30
2023-04-20T10:54:25.882Z,25.50
2023-04-20T10:55:28.296Z,25.50
2023-04-20T10:56:37.563Z,25.50
2023-04-20T10:57:39.590Z,25.70
2023-04-20T10:58:41.745Z,25.90
2023-04-20T10:59:44.346Z,26.00
2023-04-20T11:00:56.655Z,26.10
2023-04-20T11:02:01.521Z,26.20
2023-04-20T11:03:03.766Z,26.20
2023-04-20T11:04:07.165Z,26.40
2023-04-20T11:05:12.752Z,26.40
2023-04-20T11:06:15.650Z,26.30
2023-04-20T11:07:17.699Z,26.30
2023-04-20T11:08:19.786Z,26.40
2023-04-20T11:09:26.520Z,26.70
2023-04-20T11:10:39.801Z,26.80
2023-04-20T11:11:41.832Z,26.80
2023-04-20T11:12:43.842Z,26.60
2023-04-20T11:13:46.001Z,26.40
2023-04-20T11:14:53.437Z,26.20
2023-04-20T11:15:55.538Z,26.20
2023-04-20T11:16:57.913Z,26.20
2023-04-20T11:18:10.718Z,26.20
2023-04-20T11:19:12.761Z,26.30
2023-04-20T11:20:17.620Z,26.30
2023-04-20T11:21:21.160Z,26.10
2023-04-20T11:22:23.562Z,26.20
2023-04-20T11:23:27.493Z,26.30
2023-04-20T11:24:31.261Z,26.30
2023-04-20T11:25:33.426Z,26.30
2023-04-20T11:26:37.642Z,26.50
2023-04-20T11:27:40.998Z,26.60
2023-04-20T11:28:56.236Z,26.60
2023-04-20T11:29:59.815Z,26.50
2023-04-20T11:31:02.415Z,26.30
2023-04-20T11:32:09.656Z,26.20
2023-04-20T11:33:12.473Z,26.10
2023-04-20T11:34:18.262Z,26.10
2023-04-20T11:35:20.611Z,26.30
2023-04-20T11:36:24.029Z,26.10
2023-04-20T11:37:26.905Z,26.20
2023-04-20T11:38:33.840Z,26.20
2023-04-20T11:39:36.700Z,26.20
2023-04-20T11:40:38.793Z,26.10
2023-04-20T11:41:42.490Z,26.00
2023-04-20T11:42:44.954Z,26.00
2023-04-20T11:43:47.165Z,26.20
2023-04-20T11:44:49.188Z,26.40
2023-04-20T11:45:51.253Z,26.40
2023-04-20T11:46:54.741Z,26.50
2023-04-20T11:47:57.070Z,26.40
2023-04-20T11:49:00.857Z,26.50
2023-04-20T11:50:02.960Z,26.40
2023-04-20T11:51:05.032Z,26.60
2023-04-20T11:52:07.058Z,26.90
2023-04-20T11:53:10.352Z,26.80
2023-04-20T11:54:12.956Z,27.00
2023-04-20T11:55:15.316Z,26.90
2023-04-20T11:56:17.570Z,26.70
2023-04-20T11:57:21.688Z,26.90
2023-04-20T11:58:23.847Z,26.90
2023-04-20T11:59:26.134Z,26.80
2023-04-20T12:00:28.356Z,26.90
2023-04-20T12:01:30.909Z,26.70
2023-04-20T12:02:33.136Z,26.60
2023-04-20T12:03:35.464Z,26.30
2023-04-20T12:04:39.135Z,26.40
2023-04-20T12:05:43.304Z,26.10
2023-04-20T12:06:45.482Z,26.20
2023-04-20T12:07:47.497Z,26.40
2023-04-20T12:08:49.598Z,26.60
2023-04-20T12:09:51.692Z,26.80
2023-04-20T12:10:54.742Z,26.60
2023-04-20T12:11:57.995Z,26.50
2023-04-20T12:13:01.246Z,26.40
2023-04-20T12:14:04.664Z,26.30
2023-04-20T12:15:07.616Z,26.30
2023-04-20T12:16:09.645Z,26.20
2023-04-20T12:17:11.843Z,26.00
2023-04-20T12:18:13.849Z,26.20
2023-04-20T12:19:16.382Z,26.30
2023-04-20T12:20:18.741Z,26.20
2023-04-20T12:21:20.946Z,26.20
2023-04-20T12:22:23.023Z,26.20
2023-04-20T12:23:24.989Z,26.20
2023-04-20T12:24:27.019Z,26.50
2023-04-20T12:25:29.023Z,26.60
2023-04-20T12:26:37.851Z,26.60
2023-04-20T12:27:40.306Z,26.70
2023-04-20T12:28:42.377Z,26.70
2023-04-20T12:29:44.316Z,26.60
2023-04-20T12:30:46.300Z,26.30
2023-04-20T12:31:48.303Z,26.30
2023-04-20T12:32:50.455Z,26.30
2023-04-20T12:33:52.535Z,26.20
2023-04-20T12:34:54.556Z,26.20
2023-04-20T12:35:56.590Z,26.10
2023-04-20T12:36:58.600Z,26.10
2023-04-20T12:38:00.736Z,26.10
2023-04-20T12:39:03.681Z,26.00
2023-04-20T12:40:07.315Z,26.10
2023-04-20T12:41:14.851Z,26.10
2023-04-20T12:42:16.932Z,26.10
2023-04-20T12:43:18.917Z,26.10
2023-04-20T12:44:21.162Z,25.90
2023-04-20T12:45:23.466Z,25.90
2023-04-20T12:46:25.669Z,25.90
2023-04-20T12:47:27.868Z,26.00
2023-04-20T12:48:29.859Z,26.10
2023-04-20T12:49:33.606Z,26.20
2023-04-20T12:50:35.935Z,26.20
2023-04-20T12:51:37.905Z,26.40
2023-04-20T12:52:39.958Z,26.60
2023-04-20T12:53:42.088Z,26.60
2023-04-20T12:54:44.341Z,26.40
2023-04-20T12:55:46.577Z,26.30
2023-04-20T12:56:48.819Z,26.20
2023-04-20T12:57:51.675Z,26.20
2023-04-20T12:58:53.659Z,26.20
2023-04-20T12:59:56.468Z,26.20
2023-04-20T13:00:58.930Z,26.30
2023-04-20T13:02:01.129Z,26.30
2023-04-20T13:03:03.382Z,26.30
2023-04-20T13:04:05.635Z,26.30
2023-04-20T13:05:08.405Z,26.30
2023-04-20T13:06:14.186Z,26.40
2023-04-20T13:07:16.590Z,26.30
2023-04-20T13:08:19.831Z,26.20
2023-04-20T13:09:26.877Z,26.20
2023-04-20T13:10:28.915Z,26.20
2023-04-20T13:11:31.008Z,25.90
2023-04-20T13:12:33.163Z,26.00
2023-04-20T13:13:35.162Z,26.10
2023-04-20T13:14:37.227Z,26.20
2023-04-20T13:15:39.863Z,26.20
2023-04-20T13:16:42.061Z,26.10
2023-04-20T13:17:44.113Z,26.00
2023-04-20T13:18:46.197Z,25.90
2023-04-20T13:19:49.629Z,26.10
2023-04-20T13:20:51.712Z,26.20
2023-04-20T13:21:53.959Z,26.30
2023-04-20T13:23:57.310Z,26.10
2023-04-20T13:25:22.144Z,26.20
2023-04-20T13:26:28.110Z,26.10
2023-04-20T13:28:16.281Z,26.00
2023-04-20T13:29:26.078Z,25.40
2023-04-20T13:30:28.304Z,25.30
2023-04-20T13:31:31.381Z,25.10
2023-04-20T13:32:34.235Z,25.30
2023-04-20T13:33:45.339Z,25.30
2023-04-20T13:34:47.458Z,25.40
2023-04-20T13:35:49.618Z,25.50
2023-04-20T13:36:51.912Z,25.40
2023-04-20T13:37:53.991Z,25.60
2023-04-20T13:38:56.818Z,25.70
2023-04-20T13:39:59.154Z,25.90
2023-04-20T13:41:01.127Z,26.00
2023-04-20T13:42:03.167Z,26.00
2023-04-20T13:43:05.175Z,26.00
2023-04-20T13:44:07.936Z,25.90
2023-04-20T13:45:10.524Z,25.90
2023-04-20T13:46:12.714Z,25.80
2023-04-20T13:47:15.049Z,25.60
2023-04-20T13:48:17.184Z,25.60
2023-04-20T13:49:22.676Z,25.70
2023-04-20T13:50:25.056Z,25.50
2023-04-20T13:51:27.241Z,25.30
2023-04-20T13:52:29.302Z,25.40
2023-04-20T13:53:31.378Z,25.50
2023-04-20T13:54:33.501Z,25.40